createdAt,value
2023-03-20T00:01:26.491Z,101061.34
2023-03-20T00:08:29.734Z,101054.00
2023-03-20T00:15:34.294Z,101075.47
2023-03-20T00:22:36.053Z,101057.47
2023-03-20T00:29:37.614Z,101064.19
2023-03-20T00:36:39.279Z,101062.97
2023-03-20T00:43:40.841Z,101052.63
2023-03-20T00:50:42.536Z,101040.59
2023-03-20T00:57:55.786Z,101034.50
2023-03-20T01:04:58.435Z,101039.91
2023-03-20T01:12:00.582Z,101051.28
2023-03-20T01:19:02.153Z,101055.25
2023-03-20T01:26:04.123Z,101042.56
2023-03-20T01:33:26.489Z,101056.56
2023-03-20T01:40:55.822Z,101052.84
2023-03-20T01:47:58.929Z,101058.00
2023-03-20T01:55:00.883Z,101057.22
2023-03-20T02:02:02.625Z,101046.81
2023-03-20T02:09:04.432Z,101052.69
2023-03-20T02:16:14.028Z,101065.88
2023-03-20T02:24:16.439Z,101064.84
2023-03-20T02:31:48.346Z,101055.13
2023-03-20T02:39:02.611Z,101061.47
2023-03-20T02:46:20.541Z,101049.38
2023-03-20T02:53:34.763Z,101057.09
2023-03-20T03:00:39.309Z,101073.34
2023-03-20T03:07:44.148Z,101059.59
2023-03-20T03:14:49.146Z,101059.97
2023-03-20T03:21:52.384Z,101056.81
2023-03-20T03:28:58.263Z,101056.31
2023-03-20T03:36:26.154Z,101065.97
2023-03-20T03:43:35.617Z,101074.69
2023-03-20T03:50:47.758Z,101074.19
2023-03-20T03:57:52.638Z,101074.03
2023-03-20T04:04:55.148Z,101078.19
2023-03-20T04:11:56.734Z,101079.25
2023-03-20T04:18:58.426Z,101084.94
2023-03-20T04:26:00.165Z,101100.75
2023-03-20T04:33:03.358Z,101097.34
2023-03-20T04:40:19.854Z,101096.28
2023-03-20T04:47:22.822Z,101104.59
2023-03-20T04:54:26.616Z,101102.00
2023-03-20T05:01:28.518Z,101102.00
2023-03-20T05:08:30.254Z,101110.19
2023-03-20T05:15:35.470Z,101105.59
2023-03-20T05:22:55.881Z,101109.53
2023-03-20T05:30:16.533Z,101102.19
2023-03-20T05:37:30.210Z,101106.81
2023-03-20T05:44:41.697Z,101113.22
2023-03-20T05:52:06.531Z,101107.72
2023-03-20T05:59:20.301Z,101106.75
2023-03-20T06:06:42.254Z,101118.22
2023-03-20T06:13:44.360Z,101124.41
2023-03-20T06:20:47.016Z,101138.72
2023-03-20T06:27:49.164Z,101152.34
2023-03-20T06:34:51.012Z,101167.41
2023-03-20T06:41:52.777Z,101182.69
2023-03-20T06:48:58.114Z,101183.00
2023-03-20T06:55:59.780Z,101193.59
2023-03-20T07:03:02.445Z,101192.91
2023-03-20T07:10:04.579Z,101204.19
2023-03-20T07:17:06.285Z,101219.63
2023-03-20T07:24:08.932Z,101221.47
2023-03-20T07:31:18.810Z,101223.31
2023-03-20T07:38:21.628Z,101225.06
2023-03-20T07:45:36.391Z,101239.66
2023-03-20T07:52:38.192Z,101240.47
2023-03-20T07:59:39.902Z,101235.75
2023-03-20T08:06:41.518Z,101239.69
2023-03-20T08:13:43.217Z,101245.38
2023-03-20T08:20:44.764Z,101238.53
2023-03-20T08:27:46.618Z,101246.59
2023-03-20T08:34:48.210Z,101269.28
2023-03-20T08:41:49.726Z,101263.06
2023-03-20T08:48:51.549Z,101259.91
2023-03-20T08:55:53.314Z,101248.84
2023-03-20T09:02:54.885Z,101249.75
2023-03-20T09:09:56.553Z,101246.34
2023-03-20T09:16:58.124Z,101253.22
2023-03-20T09:23:59.672Z,101249.78
2023-03-20T09:31:01.359Z,101256.81
2023-03-20T09:38:03.077Z,101251.94
2023-03-20T09:45:22.140Z,101254.84
2023-03-20T09:52:51.866Z,101246.28
2023-03-20T09:59:57.565Z,101251.75
2023-03-20T10:06:59.063Z,101257.50
2023-03-20T10:14:18.516Z,101259.97
2023-03-20T10:21:24.841Z,101272.72
2023-03-20T10:28:36.643Z,101259.97
2023-03-20T10:35:57.441Z,101252.44
2023-03-20T10:43:09.510Z,101249.63
2023-03-20T10:50:15.418Z,101249.63
2023-03-20T10:57:24.546Z,101254.41
2023-03-20T11:04:26.203Z,101251.25
2023-03-20T11:11:28.777Z,101240.44
2023-03-20T11:18:30.412Z,101246.75
2023-03-20T11:25:37.476Z,101243.50
2023-03-20T11:32:46.466Z,101240.44
2023-03-20T11:40:01.434Z,101237.41
2023-03-20T11:47:14.201Z,101230.63
2023-03-20T11:54:20.136Z,101220.56
2023-03-20T12:01:22.144Z,101201.03
2023-03-20T12:08:25.074Z,101206.06
2023-03-20T12:15:37.003Z,101217.06
2023-03-20T12:22:43.272Z,101197.75
2023-03-20T12:29:48.836Z,101183.72
2023-03-20T12:36:52.907Z,101178.69
2023-03-20T12:43:54.519Z,101185.97
2023-03-20T12:51:07.875Z,101174.38
2023-03-20T12:58:32.581Z,101184.72
2023-03-20T13:05:51.054Z,101177.31
2023-03-20T13:13:04.214Z,101166.41
2023-03-20T13:20:24.013Z,101166.38
2023-03-20T13:27:45.758Z,101157.78
2023-03-20T13:34:47.323Z,101149.78
2023-03-20T13:41:48.879Z,101158.75
2023-03-20T13:48:50.706Z,101153.16
2023-03-20T13:56:11.562Z,101150.25
2023-03-20T14:03:22.260Z,101148.00
2023-03-20T14:10:24.060Z,101142.63
2023-03-20T14:17:27.260Z,101148.16
2023-03-20T14:24:28.796Z,101144.06
2023-03-20T14:31:31.533Z,101134.19
2023-03-20T14:38:44.564Z,101141.56
2023-03-20T14:45:51.561Z,101133.50
2023-03-20T14:52:54.540Z,101132.03
2023-03-20T14:59:56.239Z,101127.31
2023-03-20T15:07:19.208Z,101120.69
2023-03-20T15:14:22.970Z,101123.00
2023-03-20T15:21:36.548Z,101121.53
2023-03-20T15:28:38.200Z,101104.47
2023-03-20T15:35:39.837Z,101100.06
2023-03-20T15:42:41.370Z,101104.94
2023-03-20T15:49:43.037Z,101107.97
2023-03-20T15:56:45.727Z,101106.00
2023-03-20T16:03:47.476Z,101117.19
2023-03-20T16:10:49.019Z,101120.34
2023-03-20T16:17:50.553Z,101128.75
2023-03-20T16:24:55.532Z,101128.59
2023-03-20T16:31:59.390Z,101129.31
2023-03-20T16:39:08.133Z,101115.00
2023-03-20T16:46:09.653Z,101130.47
2023-03-20T16:53:12.322Z,101132.03
2023-03-20T17:00:25.820Z,101131.75
2023-03-20T17:07:28.378Z,101127.16
2023-03-20T17:14:30.080Z,101137.09
2023-03-20T17:21:31.885Z,101141.91
2023-03-20T17:28:34.991Z,101146.19
2023-03-20T17:35:37.162Z,101150.97
2023-03-20T17:42:39.643Z,101150.53
2023-03-20T17:49:41.181Z,101157.28
2023-03-20T17:56:42.875Z,101151.88
2023-03-20T18:03:44.433Z,101158.84
2023-03-20T18:10:46.013Z,101158.81
2023-03-20T18:17:47.523Z,101150.88
2023-03-20T18:24:49.096Z,101152.44
2023-03-20T18:31:50.774Z,101154.78
2023-03-20T18:38:52.412Z,101155.84
2023-03-20T18:45:54.075Z,101156.69
2023-03-20T18:52:56.410Z,101161.91
2023-03-20T18:59:57.930Z,101158.94
2023-03-20T19:06:59.456Z,101164.44
2023-03-20T19:14:01.243Z,101171.97
2023-03-20T19:21:02.862Z,101163.16
2023-03-20T19:28:04.886Z,101173.13
2023-03-20T19:42:53.075Z,101169.03
2023-03-20T19:49:50.150Z,101169.25
2023-03-20T19:56:51.699Z,101174.91
2023-03-20T20:03:58.204Z,101169.31
2023-03-20T20:10:59.802Z,101174.34
2023-03-20T20:18:01.556Z,101172.91
2023-03-20T20:25:03.338Z,101171.31
2023-03-20T20:32:05.401Z,101168.78
2023-03-20T20:39:07.170Z,101170.81
2023-03-20T20:46:08.818Z,101166.84
2023-03-20T20:53:10.570Z,101149.66
2023-03-20T21:00:12.681Z,101167.22
2023-03-20T21:07:14.255Z,101160.69
2023-03-20T21:14:15.785Z,101151.09
2023-03-20T21:21:17.319Z,101160.94
2023-03-20T21:28:18.914Z,101152.53
2023-03-20T21:35:20.420Z,101155.44
2023-03-20T21:42:21.938Z,101172.72
2023-03-20T21:50:17.509Z,101176.84
2023-03-20T22:05:01.418Z,101178.66
2023-03-20T22:12:07.705Z,101181.63
2023-03-20T22:27:13.014Z,101183.72
2023-03-20T22:48:20.418Z,101183.28
2023-03-20T22:55:22.677Z,101177.13
2023-03-20T23:02:24.172Z,101178.16
2023-03-20T23:09:25.722Z,101182.50
2023-03-20T23:16:27.347Z,101181.38
2023-03-20T23:23:28.939Z,101183.72
2023-03-20T23:30:37.832Z,101182.88
2023-03-20T23:37:45.464Z,101174.50
2023-03-20T23:44:55.565Z,101170.59
2023-03-20T23:51:58.855Z,101177.47
2023-03-20T23:59:11.177Z,101176.59
